createdAt,value
2018-11-26T00:02:02.707Z,20.97
2018-11-26T00:04:31.982Z,22.77
2018-11-26T00:07:01.638Z,21.67
2018-11-26T00:09:30.731Z,21.23
2018-11-26T00:12:00.053Z,25.03
2018-11-26T00:14:29.167Z,27.20
2018-11-26T00:16:59.201Z,26.53
2018-11-26T00:19:28.273Z,21.60
2018-11-26T00:21:57.339Z,23.77
2018-11-26T00:24:26.413Z,25.73
2018-11-26T00:26:55.497Z,25.30
2018-11-26T00:29:24.666Z,23.93
2018-11-26T00:31:53.800Z,25.17
2018-11-26T00:34:22.899Z,26.87
2018-11-26T00:36:51.999Z,27.13
2018-11-26T00:39:21.074Z,29.57
2018-11-26T00:41:50.920Z,29.00
2018-11-26T00:44:20.033Z,26.90
2018-11-26T00:46:49.165Z,26.80
2018-11-26T00:49:18.350Z,33.60
2018-11-26T00:51:47.463Z,24.40
2018-11-26T00:54:16.581Z,23.77
2018-11-26T00:56:46.897Z,29.67
2018-11-26T00:59:16.010Z,24.90
2018-11-26T01:01:45.330Z,22.93
2018-11-26T01:04:14.487Z,18.80
2018-11-26T01:06:43.738Z,21.17
2018-11-26T01:09:12.898Z,24.90
2018-11-26T01:11:42.034Z,20.07
2018-11-26T01:14:11.826Z,21.10
2018-11-26T01:16:40.923Z,20.73
2018-11-26T01:19:10.024Z,19.13
2018-11-26T01:21:39.893Z,17.93
2018-11-26T01:24:09.202Z,20.10
2018-11-26T01:26:39.445Z,18.87
2018-11-26T01:29:08.553Z,17.53
2018-11-26T01:31:38.428Z,20.97
2018-11-26T01:34:07.729Z,20.43
2018-11-26T01:36:36.922Z,21.90
2018-11-26T01:39:08.431Z,25.87
2018-11-26T01:41:37.666Z,19.80
2018-11-26T01:44:07.069Z,15.70
2018-11-26T01:46:36.759Z,17.20
2018-11-26T01:49:06.240Z,10.23
2018-11-26T01:51:35.357Z,15.17
2018-11-26T01:54:04.497Z,14.80
2018-11-26T01:56:33.569Z,19.87
2018-11-26T01:59:02.669Z,18.20
2018-11-26T02:01:31.990Z,20.80
2018-11-26T02:04:01.598Z,14.47
2018-11-26T02:06:32.347Z,16.87
2018-11-26T02:09:01.507Z,13.40
2018-11-26T02:11:31.300Z,18.60
2018-11-26T02:14:00.385Z,14.43
2018-11-26T02:16:29.572Z,16.07
2018-11-26T02:18:58.769Z,19.43
2018-11-26T02:21:28.041Z,14.67
2018-11-26T02:23:57.306Z,16.17
2018-11-26T02:26:26.398Z,16.50
2018-11-26T02:28:55.509Z,18.43
2018-11-26T02:31:24.592Z,16.73
2018-11-26T02:33:54.531Z,13.90
2018-11-26T02:36:24.315Z,16.00
2018-11-26T02:38:53.574Z,16.33
2018-11-26T02:41:22.782Z,16.07
2018-11-26T02:43:51.988Z,15.47
2018-11-26T02:46:21.906Z,17.33
2018-11-26T02:48:51.039Z,13.50
2018-11-26T02:51:20.338Z,17.87
2018-11-26T02:53:49.493Z,17.33
2018-11-26T02:56:18.821Z,17.53
2018-11-26T02:58:47.893Z,15.17
2018-11-26T03:01:17.025Z,16.60
2018-11-26T03:03:46.191Z,20.73
2018-11-26T03:06:15.344Z,18.90
2018-11-26T03:08:44.501Z,19.17
2018-11-26T03:11:14.422Z,17.63
2018-11-26T03:13:44.330Z,16.47
2018-11-26T03:16:13.627Z,17.20
2018-11-26T03:18:42.756Z,15.50
2018-11-26T03:21:11.939Z,16.97
2018-11-26T03:23:41.754Z,21.37
2018-11-26T03:26:10.859Z,20.67
2018-11-26T03:28:39.931Z,17.60
2018-11-26T03:31:09.125Z,19.23
2018-11-26T03:33:38.216Z,17.67
2018-11-26T03:36:07.843Z,19.53
2018-11-26T03:38:51.016Z,17.70
2018-11-26T03:41:20.575Z,18.80
2018-11-26T03:43:49.685Z,21.20
2018-11-26T03:46:18.881Z,15.83
2018-11-26T03:48:47.983Z,20.07
2018-11-26T03:51:17.259Z,19.83
2018-11-26T03:53:46.355Z,22.70
2018-11-26T03:56:15.462Z,17.27
2018-11-26T03:58:44.571Z,20.63
2018-11-26T04:01:13.678Z,22.87
2018-11-26T04:03:43.584Z,22.97
2018-11-26T04:06:12.802Z,17.97
2018-11-26T04:08:43.782Z,21.07
2018-11-26T04:11:12.875Z,22.20
2018-11-26T04:13:41.993Z,19.40
2018-11-26T04:16:11.090Z,20.03
2018-11-26T04:18:40.166Z,21.60
2018-11-26T04:21:09.832Z,20.07
2018-11-26T04:23:39.049Z,26.80
2018-11-26T04:26:08.155Z,25.07
2018-11-26T04:28:37.458Z,21.50
2018-11-26T04:31:06.617Z,18.50
2018-11-26T04:33:35.799Z,25.33
2018-11-26T04:36:05.495Z,22.87
2018-11-26T04:38:34.650Z,21.10
2018-11-26T04:41:03.771Z,28.40
2018-11-26T04:43:33.091Z,27.30
2018-11-26T04:46:02.230Z,26.53
2018-11-26T04:48:31.344Z,30.27
2018-11-26T04:51:00.458Z,28.90
2018-11-26T04:53:29.550Z,30.90
2018-11-26T04:55:58.600Z,27.53
2018-11-26T04:58:27.709Z,26.20
2018-11-26T05:00:56.966Z,23.17
2018-11-26T05:03:26.231Z,25.63
2018-11-26T05:05:55.328Z,29.10
2018-11-26T05:08:24.473Z,23.27
2018-11-26T05:10:53.612Z,31.90
2018-11-26T05:13:22.703Z,24.80
2018-11-26T05:15:52.663Z,24.57
2018-11-26T05:18:21.862Z,26.20
2018-11-26T05:20:51.088Z,26.90
2018-11-26T05:23:20.266Z,26.23
2018-11-26T05:25:49.366Z,32.03
2018-11-26T05:28:18.510Z,29.33
2018-11-26T05:30:47.633Z,30.37
2018-11-26T05:33:17.595Z,26.53
2018-11-26T05:35:47.301Z,23.60
2018-11-26T05:38:16.383Z,33.67
2018-11-26T05:40:45.662Z,26.73
2018-11-26T05:43:14.878Z,31.10
2018-11-26T05:45:44.126Z,25.97
2018-11-26T05:48:13.274Z,26.10
2018-11-26T05:50:43.059Z,30.37
2018-11-26T05:53:12.134Z,27.60
2018-11-26T05:55:41.262Z,30.67
2018-11-26T05:58:10.473Z,30.10
2018-11-26T06:00:40.133Z,30.90
2018-11-26T06:03:09.228Z,30.30
2018-11-26T06:05:38.293Z,34.30
2018-11-26T06:08:07.584Z,30.37
2018-11-26T06:10:36.661Z,34.13
2018-11-26T06:13:06.905Z,29.40
2018-11-26T06:15:36.307Z,32.83
2018-11-26T06:18:05.715Z,30.87
2018-11-26T06:20:34.812Z,30.50
2018-11-26T06:23:04.082Z,29.43
2018-11-26T06:25:33.188Z,34.57
2018-11-26T06:28:02.289Z,31.77
2018-11-26T06:30:31.614Z,35.20
2018-11-26T06:33:01.337Z,29.37
2018-11-26T06:35:30.426Z,28.60
2018-11-26T06:37:59.769Z,34.23
2018-11-26T06:40:28.914Z,32.10
2018-11-26T06:42:58.010Z,35.47
2018-11-26T06:45:27.326Z,35.13
2018-11-26T06:47:56.481Z,40.00
2018-11-26T06:50:25.761Z,33.60
2018-11-26T06:52:55.609Z,26.67
2018-11-26T06:55:24.853Z,28.87
2018-11-26T06:57:53.999Z,31.60
2018-11-26T07:00:23.105Z,36.80
2018-11-26T07:02:52.243Z,26.77
2018-11-26T07:05:22.295Z,31.20
2018-11-26T07:07:51.392Z,33.00
2018-11-26T07:10:21.176Z,35.27
2018-11-26T07:12:50.287Z,34.37
2018-11-26T07:15:21.023Z,34.50
2018-11-26T07:17:50.518Z,36.07
2018-11-26T07:20:20.850Z,32.30
2018-11-26T07:22:50.284Z,31.67
2018-11-26T07:25:20.759Z,34.50
2018-11-26T07:27:53.258Z,35.73
2018-11-26T07:30:23.615Z,38.63
2018-11-26T07:32:53.662Z,37.97
2018-11-26T07:35:22.962Z,37.57
2018-11-26T07:37:52.805Z,36.00
2018-11-26T07:40:23.027Z,41.70
2018-11-26T07:42:59.953Z,35.20
2018-11-26T07:45:29.718Z,33.23
2018-11-26T07:47:58.816Z,34.50
2018-11-26T07:50:27.862Z,39.30
2018-11-26T07:52:57.035Z,39.00
2018-11-26T07:55:26.135Z,38.83
2018-11-26T07:57:55.414Z,43.93
2018-11-26T08:00:24.651Z,38.03
2018-11-26T08:02:53.779Z,37.47
2018-11-26T08:05:23.692Z,37.60
2018-11-26T08:07:52.924Z,40.20
2018-11-26T08:10:24.303Z,43.10
2018-11-26T08:12:54.534Z,39.53
2018-11-26T08:15:24.960Z,40.33
2018-11-26T08:17:55.478Z,41.00
2018-11-26T08:20:24.754Z,31.57
2018-11-26T08:22:54.914Z,33.40
2018-11-26T08:25:24.526Z,34.20
2018-11-26T08:27:53.781Z,32.80
2018-11-26T08:30:24.451Z,33.20
2018-11-26T08:32:58.875Z,32.17
2018-11-26T08:35:29.229Z,36.07
2018-11-26T09:55:44.104Z,32.80
2018-11-26T09:58:13.231Z,32.83
2018-11-26T10:00:42.357Z,34.33
2018-11-26T10:03:11.664Z,29.70
2018-11-26T10:05:40.837Z,29.53
2018-11-26T10:08:10.086Z,27.50
2018-11-26T10:10:39.337Z,29.63
2018-11-26T10:13:08.576Z,29.57
2018-11-26T10:15:37.815Z,26.10
2018-11-26T10:18:06.946Z,27.17
2018-11-26T10:20:36.444Z,29.03
2018-11-26T10:23:06.483Z,31.43
2018-11-26T10:25:35.670Z,27.87
2018-11-26T10:28:05.098Z,33.90
2018-11-26T10:30:34.662Z,29.40
2018-11-26T10:33:03.839Z,27.93
2018-11-26T10:35:33.107Z,27.57
2018-11-26T10:38:02.366Z,26.80
2018-11-26T10:40:31.541Z,32.50
2018-11-26T10:43:00.711Z,29.93
2018-11-26T10:45:30.081Z,33.67
2018-11-26T10:47:59.237Z,28.20
2018-11-26T10:50:29.099Z,38.60
2018-11-26T10:52:59.470Z,32.30
2018-11-26T10:55:33.988Z,34.80
2018-11-26T10:58:03.270Z,32.63
2018-11-26T11:00:39.486Z,31.70
2018-11-26T11:03:08.631Z,37.33
2018-11-26T11:05:40.764Z,38.97
2018-11-26T11:08:10.055Z,34.87
2018-11-26T11:10:39.450Z,33.90
2018-11-26T11:13:10.669Z,32.00
2018-11-26T11:15:39.964Z,30.40
2018-11-26T11:18:09.556Z,24.20
2018-11-26T11:20:38.890Z,31.37
2018-11-26T11:23:08.885Z,33.33
2018-11-26T11:25:38.982Z,36.80
2018-11-26T11:28:08.190Z,33.73
2018-11-26T11:30:37.406Z,31.37
2018-11-26T11:35:35.653Z,38.13
2018-11-26T11:38:05.471Z,32.43
2018-11-26T11:40:34.676Z,29.03
2018-11-26T11:43:03.959Z,29.53
2018-11-26T11:45:34.100Z,26.37
2018-11-26T11:48:03.547Z,28.20
2018-11-26T11:50:32.718Z,28.90
2018-11-26T11:53:01.893Z,22.23
2018-11-26T11:55:31.092Z,24.77
2018-11-26T11:58:00.202Z,24.03
2018-11-26T12:00:32.937Z,22.07
2018-11-26T12:03:03.446Z,18.63
2018-11-26T12:05:32.840Z,23.03
2018-11-26T12:08:02.279Z,19.30
2018-11-26T12:10:31.615Z,18.17
2018-11-26T12:13:00.790Z,21.70
2018-11-26T12:15:30.057Z,21.47
2018-11-26T12:17:59.191Z,20.10
2018-11-26T12:20:28.730Z,20.53
2018-11-26T12:22:57.868Z,19.70
2018-11-26T12:25:28.277Z,22.57
2018-11-26T12:27:57.424Z,24.47
2018-11-26T12:30:28.108Z,19.30
2018-11-26T12:32:57.628Z,22.87
2018-11-26T12:35:26.829Z,19.77
2018-11-26T12:37:56.092Z,19.77
2018-11-26T12:40:26.552Z,22.53
2018-11-26T12:42:56.783Z,21.17
2018-11-26T12:45:27.559Z,18.93
2018-11-26T12:47:57.086Z,26.00
2018-11-26T12:50:26.905Z,21.77
2018-11-26T12:52:55.934Z,24.33
2018-11-26T12:55:25.829Z,21.67
2018-11-26T12:57:55.891Z,21.53
2018-11-26T13:00:26.232Z,25.83
2018-11-26T13:02:57.660Z,20.30
2018-11-26T13:05:27.517Z,24.37
2018-11-26T13:07:56.855Z,26.93
2018-11-26T13:10:27.304Z,25.27
2018-11-26T13:12:56.473Z,24.30
2018-11-26T13:15:29.166Z,23.30
2018-11-26T13:18:00.955Z,24.87
2018-11-26T13:20:32.294Z,26.60
2018-11-26T13:23:03.043Z,25.10
2018-11-26T13:25:34.208Z,22.73
2018-11-26T13:28:04.418Z,22.47
2018-11-26T13:30:36.176Z,21.87
2018-11-26T13:33:11.813Z,24.00
2018-11-26T13:35:40.633Z,24.80
2018-11-26T13:38:10.193Z,22.27
2018-11-26T13:40:39.366Z,28.30
2018-11-26T13:43:10.396Z,22.87
2018-11-26T13:45:42.047Z,24.30
2018-11-26T13:48:12.568Z,29.47
2018-11-26T13:50:57.940Z,24.03
2018-11-26T13:53:27.167Z,23.80
2018-11-26T13:55:56.599Z,27.60
2018-11-26T13:58:25.911Z,32.23
2018-11-26T14:00:55.925Z,24.67
2018-11-26T14:03:25.103Z,26.50
2018-11-26T14:05:54.331Z,23.80
2018-11-26T14:08:23.577Z,29.83
2018-11-26T14:10:52.949Z,29.30
2018-11-26T14:13:22.076Z,28.33
2018-11-26T14:15:51.408Z,29.67
2018-11-26T14:18:20.450Z,25.30
2018-11-26T14:20:49.650Z,24.00
2018-11-26T14:23:21.005Z,29.73
2018-11-26T14:25:50.178Z,24.67
2018-11-26T14:28:19.477Z,20.73
2018-11-26T14:30:48.720Z,20.80
2018-11-26T14:33:17.976Z,26.40
2018-11-26T14:35:47.201Z,25.50
2018-11-26T14:38:16.492Z,19.33
2018-11-26T14:40:47.340Z,21.27
2018-11-26T14:43:16.538Z,18.57
2018-11-26T14:45:45.735Z,20.67
2018-11-26T14:48:14.984Z,22.10
2018-11-26T14:50:44.211Z,25.20
2018-11-26T14:53:16.524Z,21.10
2018-11-26T14:55:45.846Z,19.27
2018-11-26T14:58:15.046Z,20.60
2018-11-26T15:00:44.238Z,20.23
2018-11-26T15:03:13.392Z,20.83
2018-11-26T15:05:43.257Z,22.53
2018-11-26T15:08:12.608Z,24.20
2018-11-26T15:10:41.720Z,18.60
2018-11-26T15:13:11.656Z,17.10
2018-11-26T15:15:41.598Z,18.27
2018-11-26T15:18:10.765Z,21.03
2018-11-26T15:20:39.925Z,15.47
2018-11-26T15:23:09.128Z,14.67
2018-11-26T15:25:45.150Z,12.47
2018-11-26T15:28:14.827Z,12.40
2018-11-26T15:30:44.248Z,14.10
2018-11-26T15:33:14.068Z,11.87
2018-11-26T15:35:43.207Z,11.10
2018-11-26T15:38:13.039Z,9.30
2018-11-26T15:40:42.857Z,12.20
2018-11-26T15:43:12.107Z,12.50
2018-11-26T15:45:41.274Z,9.83
2018-11-26T15:48:11.832Z,14.83
2018-11-26T15:50:41.722Z,10.30
2018-11-26T15:53:11.118Z,9.77
2018-11-26T15:55:40.273Z,10.30
2018-11-26T15:58:10.461Z,12.17
2018-11-26T16:00:39.785Z,11.53
2018-11-26T16:03:09.076Z,11.70
2018-11-26T16:05:40.228Z,16.90
2018-11-26T16:08:10.645Z,16.90
2018-11-26T16:10:39.518Z,15.80
2018-11-26T16:13:09.563Z,16.17
2018-11-26T16:15:40.289Z,20.47
2018-11-26T16:18:11.447Z,17.20
2018-11-26T16:20:40.292Z,14.70
2018-11-26T16:23:10.061Z,14.53
2018-11-26T16:25:41.293Z,17.33
2018-11-26T16:28:11.429Z,15.00
2018-11-26T16:30:40.302Z,16.80
2018-11-26T16:33:09.830Z,16.77
2018-11-26T16:35:38.674Z,16.17
2018-11-26T16:38:08.546Z,15.10
2018-11-26T16:40:37.395Z,14.10
2018-11-26T16:43:06.646Z,14.60
2018-11-26T16:45:35.468Z,15.57
2018-11-26T16:48:04.330Z,16.80
2018-11-26T16:50:34.407Z,16.23
2018-11-26T16:53:03.262Z,15.53
2018-11-26T16:55:32.087Z,15.23
2018-11-26T16:58:00.916Z,14.97
2018-11-26T17:00:30.635Z,17.30
2018-11-26T17:03:00.585Z,21.93
2018-11-26T17:05:37.749Z,20.27
2018-11-26T17:08:10.767Z,18.17
2018-11-26T17:10:39.734Z,16.80
2018-11-26T17:13:10.002Z,19.27
2018-11-26T17:15:38.845Z,16.40
2018-11-26T17:18:07.979Z,16.00
2018-11-26T17:20:37.566Z,18.20
2018-11-26T17:23:06.985Z,16.97
2018-11-26T17:25:35.806Z,18.37
2018-11-26T17:28:04.662Z,19.63
2018-11-26T17:30:33.486Z,18.60
2018-11-26T17:33:03.582Z,19.83
2018-11-26T17:35:32.570Z,22.80
2018-11-26T17:38:01.399Z,24.13
2018-11-26T17:40:30.242Z,25.33
2018-11-26T17:42:59.098Z,25.50
2018-11-26T17:45:27.938Z,24.60
2018-11-26T17:47:58.794Z,23.47
2018-11-26T17:50:35.006Z,21.30
2018-11-26T17:53:04.158Z,24.37
2018-11-26T17:55:32.977Z,28.60
2018-11-26T17:58:01.823Z,20.77
2018-11-26T18:00:32.962Z,24.60
2018-11-26T18:03:02.041Z,24.53
2018-11-26T18:05:31.384Z,29.83
2018-11-26T18:08:04.285Z,25.23
2018-11-26T18:10:33.132Z,25.97
2018-11-26T18:13:02.021Z,23.67
2018-11-26T18:15:30.847Z,23.40
2018-11-26T18:17:59.718Z,24.73
2018-11-26T18:20:28.540Z,22.57
2018-11-26T18:22:57.396Z,23.83
2018-11-26T18:25:26.214Z,26.67
2018-11-26T18:28:11.111Z,25.10
2018-11-26T18:30:43.262Z,22.60
2018-11-26T18:33:12.122Z,24.20
2018-11-26T18:35:41.566Z,25.83
2018-11-26T18:38:10.398Z,25.50
2018-11-26T18:40:40.449Z,29.17
2018-11-26T18:43:09.594Z,36.00
2018-11-26T18:45:39.472Z,28.53
2018-11-26T18:48:09.418Z,26.43
2018-11-26T18:50:38.499Z,31.90
2018-11-26T18:53:08.076Z,27.27
2018-11-26T18:55:38.052Z,29.53
2018-11-26T18:58:07.139Z,26.43
2018-11-26T19:00:43.186Z,27.63
2018-11-26T19:03:12.071Z,31.63
2018-11-26T19:05:40.873Z,33.93
2018-11-26T19:08:09.698Z,29.23
2018-11-26T19:10:38.518Z,27.70
2018-11-26T19:14:13.894Z,28.20
2018-11-26T19:16:45.946Z,28.63
2018-11-26T19:19:14.784Z,32.40
2018-11-26T19:21:43.687Z,35.40
2018-11-26T19:24:12.575Z,28.13
2018-11-26T19:26:41.390Z,32.47
2018-11-26T19:29:10.225Z,29.30
2018-11-26T19:31:39.026Z,28.20
2018-11-26T19:34:07.875Z,32.80
2018-11-26T19:36:36.723Z,29.27
2018-11-26T19:39:08.360Z,34.23
2018-11-26T19:41:37.463Z,29.77
2018-11-26T19:44:06.390Z,34.43
2018-11-26T19:46:35.169Z,30.30
2018-11-26T19:49:04.011Z,36.87
2018-11-26T19:51:32.847Z,31.73
2018-11-26T19:54:01.663Z,32.80
2018-11-26T19:56:30.501Z,32.23
2018-11-26T19:59:01.266Z,33.63
2018-11-26T20:01:30.137Z,29.60
2018-11-26T20:04:14.926Z,29.87
2018-11-26T20:06:43.743Z,33.93
2018-11-26T20:09:12.577Z,30.70
2018-11-26T20:11:41.402Z,30.33
2018-11-26T20:14:10.488Z,31.70
2018-11-26T20:16:43.583Z,38.60
2018-11-26T20:19:12.895Z,31.47
2018-11-26T20:21:41.994Z,29.37
2018-11-26T20:24:11.816Z,31.33
2018-11-26T20:26:41.048Z,29.97
2018-11-26T20:29:10.616Z,33.63
2018-11-26T20:31:39.932Z,26.03
2018-11-26T20:34:09.090Z,28.87
2018-11-26T20:36:41.517Z,28.53
2018-11-26T20:39:10.663Z,32.70
2018-11-26T20:41:40.076Z,30.40
2018-11-26T20:44:09.556Z,28.90
2018-11-26T20:46:39.559Z,31.07
2018-11-26T20:49:10.376Z,29.77
2018-11-26T20:51:39.738Z,32.50
2018-11-26T20:54:09.866Z,32.83
2018-11-26T20:56:39.006Z,36.60
2018-11-26T20:59:08.596Z,34.33
2018-11-26T21:01:37.791Z,30.20
2018-11-26T21:04:08.620Z,34.20
2018-11-26T21:06:38.407Z,34.53
2018-11-26T21:09:08.924Z,33.57
2018-11-26T21:11:39.783Z,32.60
2018-11-26T21:14:09.643Z,35.53
2018-11-26T21:16:38.794Z,31.27
2018-11-26T21:19:08.106Z,33.40
2018-11-26T21:21:37.664Z,29.67
2018-11-26T21:24:07.308Z,32.20
2018-11-26T21:26:36.457Z,29.97
2018-11-26T21:29:06.519Z,35.80
2018-11-26T21:31:35.784Z,33.13
2018-11-26T21:34:05.357Z,31.53
2018-11-26T21:36:35.920Z,35.00
2018-11-26T21:39:08.475Z,36.03
2018-11-26T21:41:38.483Z,35.87
2018-11-26T21:44:09.175Z,37.10
2018-11-26T21:46:38.281Z,41.23
2018-11-26T21:49:07.402Z,37.80
2018-11-26T21:51:37.077Z,32.90
2018-11-26T21:54:06.596Z,38.80
2018-11-26T21:56:36.286Z,35.27
2018-11-26T21:59:05.760Z,35.23
2018-11-26T22:01:35.003Z,33.80
2018-11-26T22:04:04.130Z,31.10
2018-11-26T22:06:33.914Z,32.33
2018-11-26T22:09:03.947Z,31.80
2018-11-26T22:11:33.082Z,28.63
2018-11-26T22:14:02.225Z,32.93
2018-11-26T22:16:31.443Z,30.73
2018-11-26T22:19:00.694Z,35.80
2018-11-26T22:21:29.942Z,29.67
2018-11-26T22:23:59.526Z,32.90
2018-11-26T22:26:30.520Z,31.40
2018-11-26T22:28:59.611Z,34.87
2018-11-26T22:31:28.602Z,27.47
2018-11-26T22:33:57.598Z,31.17
2018-11-26T22:36:26.824Z,30.17
2018-11-26T22:38:56.156Z,29.80
2018-11-26T22:41:25.241Z,27.30
2018-11-26T22:43:54.849Z,29.70
2018-11-26T22:46:24.029Z,30.07
2018-11-26T22:48:54.106Z,32.30
2018-11-26T22:51:23.230Z,36.20
2018-11-26T22:53:53.036Z,31.90
2018-11-26T22:56:23.380Z,29.60
2018-11-26T22:58:52.411Z,30.20
2018-11-26T23:01:21.559Z,30.90
2018-11-26T23:03:50.645Z,29.33
2018-11-26T23:06:19.827Z,33.13
2018-11-26T23:08:48.918Z,28.40
2018-11-26T23:11:18.307Z,27.93
2018-11-26T23:13:47.410Z,32.30
2018-11-26T23:16:17.185Z,29.60
2018-11-26T23:18:46.325Z,28.20
2018-11-26T23:21:15.717Z,26.40
2018-11-26T23:23:45.084Z,32.90
2018-11-26T23:26:14.221Z,30.17
2018-11-26T23:28:43.324Z,28.80
2018-11-26T23:31:12.618Z,33.13
2018-11-26T23:33:41.993Z,28.37
2018-11-26T23:36:11.113Z,26.90
2018-11-26T23:38:40.252Z,27.30
2018-11-26T23:41:09.387Z,31.10
2018-11-26T23:43:38.634Z,31.03
2018-11-26T23:46:07.831Z,28.37
2018-11-26T23:48:37.079Z,29.20
2018-11-26T23:51:07.504Z,29.93
2018-11-26T23:53:38.067Z,30.60
2018-11-26T23:56:09.578Z,31.47
2018-11-26T23:58:38.863Z,29.40
